createdAt,value
2023-10-03T00:01:20.025Z,101096.22
2023-10-03T00:03:46.528Z,101102.72
2023-10-03T00:06:13.195Z,101100.56
2023-10-03T00:08:40.194Z,101087.56
2023-10-03T00:11:06.682Z,101081.03
2023-10-03T00:13:33.089Z,101078.81
2023-10-03T00:15:59.484Z,101074.50
2023-10-03T00:18:25.935Z,101073.03
2023-10-03T00:20:52.429Z,101062.97
2023-10-03T00:23:19.254Z,101067.28
2023-10-03T00:25:45.727Z,101057.84
2023-10-03T00:28:12.467Z,101052.84
2023-10-03T00:30:42.654Z,101044.19
2023-10-03T00:33:13.930Z,101046.31
2023-10-03T00:35:44.074Z,101043.44
2023-10-03T00:38:14.955Z,101043.44
2023-10-03T00:40:41.939Z,101037.66
2023-10-03T00:43:08.960Z,101032.66
2023-10-03T00:45:35.361Z,101027.63
2023-10-03T00:48:12.972Z,101029.75
2023-10-03T00:50:39.568Z,101032.66
2023-10-03T00:53:10.352Z,101025.38
2023-10-03T00:55:37.310Z,101019.63
2023-10-03T00:58:24.270Z,101015.25
2023-10-03T01:00:50.765Z,101005.09
2023-10-03T01:03:30.003Z,101003.72
2023-10-03T01:05:59.502Z,100999.41
2023-10-03T01:08:28.052Z,101003.72
2023-10-03T01:10:56.222Z,100997.94
2023-10-03T01:13:25.173Z,100992.09
2023-10-03T01:15:51.730Z,100987.78
2023-10-03T01:18:21.975Z,100979.81
2023-10-03T01:20:56.531Z,100984.81
2023-10-03T01:23:23.093Z,100981.28
2023-10-03T01:25:50.030Z,100980.56
2023-10-03T01:28:16.467Z,100985.59
2023-10-03T01:30:42.931Z,100987.72
2023-10-03T01:33:09.891Z,100981.94
2023-10-03T01:35:36.523Z,100976.13
2023-10-03T01:38:02.931Z,100960.28
2023-10-03T01:40:29.358Z,100963.16
2023-10-03T01:42:56.789Z,100955.91
2023-10-03T01:45:24.005Z,100959.53
2023-10-03T01:47:53.173Z,100955.84
2023-10-03T01:50:20.304Z,100948.66
2023-10-03T01:52:49.671Z,100951.53
2023-10-03T01:55:18.291Z,100956.56
2023-10-03T01:57:46.376Z,100945.03
2023-10-03T02:00:26.209Z,100941.41
2023-10-03T02:02:57.631Z,100932.75
2023-10-03T02:05:28.401Z,100931.25
2023-10-03T02:07:56.503Z,100924.75
2023-10-03T02:10:23.895Z,100919.72
2023-10-03T02:12:50.351Z,100916.84
2023-10-03T02:15:17.724Z,100903.81
2023-10-03T02:17:44.446Z,100902.41
2023-10-03T02:20:16.480Z,100890.88
2023-10-03T02:22:42.947Z,100887.25
2023-10-03T02:25:10.295Z,100879.34
2023-10-03T02:27:36.965Z,100867.81
2023-10-03T02:30:13.393Z,100864.19
2023-10-03T02:32:40.730Z,100866.34
2023-10-03T02:35:07.588Z,100860.56
2023-10-03T02:37:34.427Z,100854.06
2023-10-03T02:40:01.576Z,100854.06
2023-10-03T02:42:29.391Z,100849.69
2023-10-03T02:44:55.895Z,100841.75
2023-10-03T02:47:22.670Z,100834.53
2023-10-03T02:49:50.679Z,100822.25
2023-10-03T02:52:17.699Z,100817.22
2023-10-03T02:54:44.386Z,100820.84
2023-10-03T02:57:10.794Z,100813.59
2023-10-03T02:59:37.932Z,100813.59
2023-10-03T03:02:06.634Z,100815.72
2023-10-03T03:04:34.744Z,100808.44
2023-10-03T03:07:05.775Z,100809.22
2023-10-03T03:09:36.733Z,100802.69
2023-10-03T03:12:05.685Z,100791.16
2023-10-03T03:14:32.222Z,100782.50
2023-10-03T03:16:58.626Z,100772.38
2023-10-03T03:19:27.849Z,100773.09
2023-10-03T03:21:58.172Z,100760.84
2023-10-03T03:24:35.166Z,100753.56
2023-10-03T03:27:01.854Z,100755.81
2023-10-03T03:29:36.762Z,100742.03
2023-10-03T03:32:05.598Z,100742.78
2023-10-03T03:34:32.118Z,100735.53
2023-10-03T03:37:18.505Z,100734.81
2023-10-03T03:39:54.601Z,100726.88
2023-10-03T03:42:23.731Z,100729.03
2023-10-03T03:44:50.455Z,100724.00
2023-10-03T03:47:19.813Z,100726.16
2023-10-03T03:49:47.900Z,100723.28
2023-10-03T03:52:17.443Z,100723.28
2023-10-03T03:54:43.832Z,100718.22
2023-10-03T03:57:10.238Z,100723.28
2023-10-03T03:59:36.984Z,100710.97
2023-10-03T04:02:04.311Z,100698.69
2023-10-03T04:04:30.750Z,100710.25
2023-10-03T04:06:57.219Z,100703.09
2023-10-03T04:09:23.667Z,100699.44
2023-10-03T04:11:50.104Z,100699.44
2023-10-03T04:14:16.526Z,100692.94
2023-10-03T04:16:44.811Z,100695.81
2023-10-03T04:19:12.380Z,100694.44
2023-10-03T04:21:41.257Z,100700.19
2023-10-03T04:24:10.621Z,100690.78
2023-10-03T04:26:38.077Z,100692.94
2023-10-03T04:29:04.805Z,100685.69
2023-10-03T04:31:31.578Z,100672.75
2023-10-03T04:33:58.157Z,100674.91
2023-10-03T04:36:27.157Z,100662.63
2023-10-03T04:38:54.427Z,100673.41
2023-10-03T04:41:21.327Z,100669.88
2023-10-03T04:43:47.755Z,100664.03
2023-10-03T04:46:14.344Z,100656.84
2023-10-03T04:48:40.836Z,100651.09
2023-10-03T04:51:07.242Z,100651.81
2023-10-03T04:53:33.883Z,100643.84
2023-10-03T04:56:00.394Z,100645.31
2023-10-03T04:58:26.788Z,100629.41
2023-10-03T05:00:53.211Z,100625.78
2023-10-03T05:03:21.024Z,100628.03
2023-10-03T05:05:49.955Z,100620.75
2023-10-03T05:08:16.832Z,100615.00
2023-10-03T05:10:43.219Z,100609.22
2023-10-03T05:13:09.725Z,100602.72
2023-10-03T05:15:36.107Z,100604.16
2023-10-03T05:18:04.401Z,100597.69
2023-10-03T05:20:39.004Z,100596.22
2023-10-03T05:23:05.955Z,100584.69
2023-10-03T05:25:37.698Z,100583.28
2023-10-03T05:28:05.213Z,100573.16
2023-10-03T05:30:34.360Z,100570.28
2023-10-03T05:33:01.213Z,100567.38
2023-10-03T05:35:27.774Z,100567.38
2023-10-03T05:37:54.279Z,100555.13
2023-10-03T05:40:21.575Z,100558.75
2023-10-03T05:42:51.404Z,100545.06
2023-10-03T05:45:18.352Z,100550.09
2023-10-03T05:47:48.114Z,100549.34
2023-10-03T05:50:18.015Z,100550.09
2023-10-03T05:52:47.114Z,100555.84
2023-10-03T05:55:13.521Z,100545.72
2023-10-03T05:57:42.349Z,100545.78
2023-10-03T06:00:10.160Z,100545.78
2023-10-03T06:02:37.491Z,100545.72
2023-10-03T06:05:03.931Z,100541.44
2023-10-03T06:07:31.587Z,100542.91
2023-10-03T06:09:58.005Z,100531.28
2023-10-03T06:12:24.847Z,100532.78
2023-10-03T06:14:51.653Z,100521.25
2023-10-03T06:17:20.851Z,100527.03
2023-10-03T06:19:47.242Z,100519.75
2023-10-03T06:22:13.928Z,100526.28
2023-10-03T06:24:40.414Z,100532.06
2023-10-03T06:27:09.654Z,100537.81
2023-10-03T06:29:36.466Z,100527.03
2023-10-03T06:32:02.872Z,100525.53
2023-10-03T06:34:29.609Z,100539.28
2023-10-03T06:36:56.000Z,100533.53
2023-10-03T06:39:22.445Z,100525.53
2023-10-03T06:41:48.906Z,100531.28
2023-10-03T06:44:17.699Z,100521.19
2023-10-03T06:46:44.165Z,100521.31
2023-10-03T06:49:11.751Z,100520.88
2023-10-03T06:51:38.299Z,100513.03
2023-10-03T06:54:05.326Z,100494.75
2023-10-03T06:56:34.085Z,100479.88
2023-10-03T06:59:01.060Z,100471.34
2023-10-03T07:01:27.987Z,100481.47
2023-10-03T07:03:55.628Z,100514.44
2023-10-03T07:06:22.313Z,100495.19
2023-10-03T07:08:49.461Z,100499.59
2023-10-03T07:11:18.145Z,100500.47
2023-10-03T07:13:44.693Z,100489.06
2023-10-03T07:16:12.285Z,100504.22
2023-10-03T07:18:38.988Z,100492.81
2023-10-03T07:21:05.451Z,100488.63
2023-10-03T07:23:31.893Z,100471.66
2023-10-03T07:25:58.328Z,100479.16
2023-10-03T07:28:24.836Z,100496.22
2023-10-03T07:30:51.638Z,100462.94
2023-10-03T07:33:18.194Z,100486.03
2023-10-03T07:35:45.983Z,100496.22
2023-10-03T07:38:12.653Z,100489.31
2023-10-03T07:40:39.912Z,100489.22
2023-10-03T07:43:13.466Z,100481.22
2023-10-03T07:45:41.368Z,100477.25
2023-10-03T07:48:08.001Z,100475.81
2023-10-03T07:50:38.661Z,100468.69
2023-10-03T07:53:12.417Z,100474.44
2023-10-03T07:55:40.199Z,100470.22
2023-10-03T07:58:06.748Z,100474.97
2023-10-03T08:00:33.514Z,100469.91
2023-10-03T08:03:00.181Z,100460.47
2023-10-03T08:05:29.235Z,100457.09
2023-10-03T08:07:55.882Z,100442.75
2023-10-03T08:10:22.294Z,100440.59
2023-10-03T08:12:53.720Z,100452.31
2023-10-03T08:15:23.919Z,100445.13
2023-10-03T08:17:50.802Z,100449.53
2023-10-03T08:20:19.266Z,100452.00
2023-10-03T08:22:54.432Z,100435.91
2023-10-03T08:25:21.111Z,100443.44
2023-10-03T08:27:47.900Z,100436.81
2023-10-03T08:30:27.220Z,100450.09
2023-10-03T08:32:57.327Z,100443.66
2023-10-03T08:35:35.831Z,100429.16
2023-10-03T08:38:09.002Z,100426.22
2023-10-03T08:40:42.331Z,100427.69
2023-10-03T08:43:09.300Z,100422.03
2023-10-03T08:45:42.791Z,100428.44
2023-10-03T08:48:09.417Z,100422.78
2023-10-03T08:50:42.736Z,100416.16
2023-10-03T08:53:18.752Z,100419.09
2023-10-03T08:55:45.634Z,100412.66
2023-10-03T08:58:14.428Z,100414.78
2023-10-03T09:00:44.345Z,100404.59
2023-10-03T09:03:12.325Z,100433.94
2023-10-03T09:05:41.843Z,100421.16
2023-10-03T09:08:11.795Z,100419.66
2023-10-03T09:10:54.386Z,100425.19
2023-10-03T09:13:25.040Z,100427.19
2023-10-03T09:16:01.734Z,100429.28
2023-10-03T09:18:32.456Z,100434.31
2023-10-03T09:21:02.122Z,100435.72
2023-10-03T09:23:28.843Z,100428.56
2023-10-03T09:25:57.382Z,100421.31
2023-10-03T09:28:36.514Z,100426.34
2023-10-03T09:31:11.780Z,100434.31
2023-10-03T09:33:41.133Z,100414.78
2023-10-03T09:36:09.673Z,100432.09
2023-10-03T09:38:43.555Z,100437.22
2023-10-03T09:41:18.064Z,100410.50
2023-10-03T09:43:48.896Z,100429.97
2023-10-03T09:46:15.310Z,100414.06
2023-10-03T09:48:41.813Z,100403.25
2023-10-03T09:51:08.359Z,100409.03
2023-10-03T09:53:35.002Z,100405.47
2023-10-03T09:56:01.432Z,100409.75
2023-10-03T09:58:32.697Z,100440.09
2023-10-03T10:00:59.181Z,100415.53
2023-10-03T10:03:29.699Z,100415.53
2023-10-03T10:06:15.099Z,100417.03
2023-10-03T10:08:59.304Z,100409.63
2023-10-03T10:11:31.325Z,100413.56
2023-10-03T10:14:09.798Z,100404.72
2023-10-03T10:16:36.612Z,100398.16
2023-10-03T10:19:05.345Z,100397.59
2023-10-03T10:21:33.087Z,100410.25
2023-10-03T10:24:21.289Z,100410.44
2023-10-03T10:26:51.002Z,100412.81
2023-10-03T10:29:20.845Z,100408.63
2023-10-03T10:31:53.424Z,100410.72
2023-10-03T10:34:22.531Z,100418.84
2023-10-03T10:36:56.186Z,100417.34
2023-10-03T10:39:24.561Z,100410.38
2023-10-03T10:42:12.972Z,100421.75
2023-10-03T10:44:59.342Z,100414.00
2023-10-03T10:47:25.770Z,100408.00
2023-10-03T10:50:09.678Z,100414.91
2023-10-03T10:52:53.377Z,100391.94
2023-10-03T10:55:22.150Z,100407.81
2023-10-03T10:57:49.432Z,100407.34
2023-10-03T11:00:22.262Z,100420.34
2023-10-03T11:02:48.940Z,100420.03
2023-10-03T11:05:15.481Z,100427.50
2023-10-03T11:07:45.999Z,100418.25
2023-10-03T11:10:32.267Z,100429.91
2023-10-03T11:13:00.677Z,100426.97
2023-10-03T11:15:27.482Z,100425.16
2023-10-03T11:17:54.123Z,100420.31
2023-10-03T11:20:21.056Z,100432.66
2023-10-03T11:22:48.554Z,100430.50
2023-10-03T11:25:15.098Z,100440.91
2023-10-03T11:27:41.789Z,100441.63
2023-10-03T11:30:18.111Z,100453.19
2023-10-03T11:32:44.582Z,100457.50
2023-10-03T11:35:14.889Z,100455.41
2023-10-03T11:37:45.078Z,100444.81
2023-10-03T11:40:12.588Z,100457.34
2023-10-03T11:42:48.673Z,100450.19
2023-10-03T11:45:25.436Z,100447.31
2023-10-03T11:47:59.794Z,100456.66
2023-10-03T11:50:29.252Z,100448.84
2023-10-03T11:52:57.789Z,100451.84
2023-10-03T11:55:24.640Z,100441.84
2023-10-03T11:57:51.283Z,100447.47
2023-10-03T12:00:17.692Z,100444.09
2023-10-03T12:02:47.139Z,100439.34
2023-10-03T12:05:13.670Z,100457.28
2023-10-03T12:07:47.075Z,100455.03
2023-10-03T12:10:13.677Z,100447.72
2023-10-03T12:12:40.158Z,100460.78
2023-10-03T12:15:13.537Z,100467.97
2023-10-03T12:17:41.048Z,100461.63
2023-10-03T12:20:11.341Z,100459.03
2023-10-03T12:22:40.925Z,100462.06
2023-10-03T12:25:07.599Z,100456.28
2023-10-03T12:27:33.992Z,100454.84
2023-10-03T12:30:05.156Z,100458.56
2023-10-03T12:32:35.697Z,100453.16
2023-10-03T12:35:02.217Z,100451.16
2023-10-03T12:37:30.028Z,100455.16
2023-10-03T12:39:57.205Z,100447.94
2023-10-03T12:42:23.603Z,100462.84
2023-10-03T12:44:51.734Z,100461.16
2023-10-03T12:47:19.219Z,100454.78
2023-10-03T12:49:45.662Z,100449.00
2023-10-03T12:52:12.066Z,100450.53
2023-10-03T12:54:39.644Z,100446.16
2023-10-03T12:57:06.668Z,100450.50
2023-10-03T12:59:33.306Z,100443.88
2023-10-03T13:02:01.024Z,100447.63
2023-10-03T13:04:29.082Z,100444.75
2023-10-03T13:06:55.695Z,100446.75
2023-10-03T13:09:22.836Z,100444.03
2023-10-03T13:11:49.404Z,100439.28
2023-10-03T13:14:15.790Z,100430.59
2023-10-03T13:16:42.173Z,100437.97
2023-10-03T13:19:10.945Z,100441.69
2023-10-03T13:21:37.955Z,100451.13
2023-10-03T13:24:04.592Z,100445.44
2023-10-03T13:26:31.088Z,100447.06
2023-10-03T13:28:57.475Z,100448.88
2023-10-03T13:31:23.984Z,100444.13
2023-10-03T13:33:50.890Z,100448.88
2023-10-03T13:36:19.944Z,100456.16
2023-10-03T13:38:46.648Z,100456.72
2023-10-03T13:41:13.049Z,100455.25
2023-10-03T13:43:40.677Z,100446.69
2023-10-03T13:46:07.154Z,100455.41
2023-10-03T13:48:33.713Z,100475.69
2023-10-03T13:51:03.929Z,100466.63
2023-10-03T13:53:32.407Z,100459.69
2023-10-03T13:56:00.414Z,100470.25
2023-10-03T13:58:30.422Z,100467.38
2023-10-03T14:00:57.121Z,100468.78
2023-10-03T14:03:23.783Z,100469.41
2023-10-03T14:05:50.246Z,100462.31
2023-10-03T14:08:17.511Z,100460.41
2023-10-03T14:10:44.450Z,100461.09
2023-10-03T14:13:11.557Z,100463.44
2023-10-03T14:15:41.286Z,100455.09
2023-10-03T14:18:07.789Z,100448.56
2023-10-03T14:20:34.291Z,100455.03
2023-10-03T14:23:00.695Z,100450.69
2023-10-03T14:25:27.671Z,100450.28
2023-10-03T14:27:55.411Z,100458.97
2023-10-03T14:30:22.124Z,100459.09
2023-10-03T14:32:50.576Z,100454.75
2023-10-03T14:35:17.058Z,100457.56
2023-10-03T14:37:43.464Z,100454.75
2023-10-03T14:40:11.278Z,100454.03
2023-10-03T14:42:38.562Z,100467.03
2023-10-03T14:45:05.672Z,100467.75
2023-10-03T14:47:32.530Z,100464.13
2023-10-03T14:49:59.200Z,100467.03
2023-10-03T14:52:25.640Z,100468.50
2023-10-03T14:54:52.141Z,100466.38
2023-10-03T14:57:18.606Z,100482.06
2023-10-03T14:59:45.079Z,100474.25
2023-10-03T15:02:12.368Z,100464.03
2023-10-03T15:04:38.846Z,100474.25
2023-10-03T15:07:05.258Z,100467.69
2023-10-03T15:09:31.671Z,100465.00
2023-10-03T15:11:59.489Z,100462.72
2023-10-03T15:14:27.748Z,100457.50
2023-10-03T15:16:55.441Z,100459.03
2023-10-03T15:19:21.918Z,100454.69
2023-10-03T15:21:48.355Z,100462.72
2023-10-03T15:24:15.579Z,100453.97
2023-10-03T15:26:42.072Z,100461.53
2023-10-03T15:29:09.900Z,100450.72
2023-10-03T15:31:37.605Z,100446.47
2023-10-03T15:34:04.286Z,100459.22
2023-10-03T15:36:33.431Z,100450.38
2023-10-03T15:38:59.882Z,100450.16
2023-10-03T15:41:26.299Z,100468.28
2023-10-03T15:43:53.341Z,100513.00
2023-10-03T15:46:19.995Z,100539.13
2023-10-03T15:48:46.529Z,100527.94
2023-10-03T15:51:16.293Z,100554.97
2023-10-03T15:53:46.771Z,100576.59
2023-10-03T15:56:15.047Z,100585.81
2023-10-03T15:58:42.490Z,100596.66
2023-10-03T16:01:12.500Z,100600.28
2023-10-03T16:03:41.337Z,100606.75
2023-10-03T16:06:09.648Z,100597.28
2023-10-03T16:08:37.593Z,100607.13
2023-10-03T16:11:05.317Z,100605.63
2023-10-03T16:13:33.120Z,100604.03
2023-10-03T16:15:59.552Z,100624.38
2023-10-03T16:18:26.067Z,100631.63
2023-10-03T16:20:53.240Z,100641.78
2023-10-03T16:23:19.786Z,100631.13
2023-10-03T16:25:49.710Z,100608.94
2023-10-03T16:28:16.125Z,100617.75
2023-10-03T16:30:45.506Z,100649.88
2023-10-03T16:33:12.004Z,100680.25
2023-10-03T16:35:38.521Z,100688.44
2023-10-03T16:38:04.928Z,100704.91
2023-10-03T16:40:32.066Z,100717.06
2023-10-03T16:42:58.509Z,100705.59
2023-10-03T16:45:25.766Z,100710.28
2023-10-03T16:47:52.789Z,100687.50
2023-10-03T16:50:20.405Z,100689.47
2023-10-03T16:52:47.276Z,100679.28
2023-10-03T16:55:14.176Z,100718.28
2023-10-03T16:57:40.631Z,100741.47
2023-10-03T17:00:07.381Z,100729.91
2023-10-03T17:02:34.030Z,100750.06
2023-10-03T17:05:00.540Z,100747.84
2023-10-03T17:07:27.262Z,100748.59
2023-10-03T17:09:53.680Z,100731.34
2023-10-03T17:12:20.195Z,100731.38
2023-10-03T17:14:46.616Z,100750.22
2023-10-03T17:17:13.013Z,100774.06
2023-10-03T17:19:39.690Z,100785.41
2023-10-03T17:22:06.601Z,100778.38
2023-10-03T17:24:33.013Z,100778.38
2023-10-03T17:27:01.101Z,100758.81
2023-10-03T17:29:28.416Z,100767.25
2023-10-03T17:31:56.026Z,100796.91
2023-10-03T17:34:22.489Z,100787.47
2023-10-03T17:36:48.953Z,100801.94
2023-10-03T17:39:16.548Z,100793.25
2023-10-03T17:41:43.028Z,100791.31
2023-10-03T17:44:09.791Z,100823.09
2023-10-03T17:46:36.228Z,100827.50
2023-10-03T17:49:05.903Z,100834.72
2023-10-03T17:51:32.706Z,100835.38
2023-10-03T17:53:59.233Z,100838.91
2023-10-03T17:56:25.643Z,100847.00
2023-10-03T17:58:52.116Z,100853.34
2023-10-03T18:01:23.106Z,100854.72
2023-10-03T18:03:49.685Z,100865.53
2023-10-03T18:06:16.298Z,100865.41
2023-10-03T18:08:42.711Z,100872.50
2023-10-03T18:11:09.150Z,100875.41
2023-10-03T18:13:35.539Z,100882.59
2023-10-03T18:16:01.934Z,100902.06
2023-10-03T18:18:28.532Z,100929.44
2023-10-03T18:20:55.124Z,100934.50
2023-10-03T18:23:22.954Z,100950.34
2023-10-03T18:25:49.388Z,100952.47
2023-10-03T18:28:15.845Z,100942.34
2023-10-03T18:30:45.380Z,100953.91
2023-10-03T18:33:14.073Z,100958.16
2023-10-03T18:35:40.633Z,100966.19
2023-10-03T18:38:07.677Z,100972.69
2023-10-03T18:40:38.272Z,100963.22
2023-10-03T18:43:07.416Z,100998.53
2023-10-03T18:45:43.781Z,100993.50
2023-10-03T18:48:18.338Z,101003.47
2023-10-03T18:50:44.862Z,101008.50
2023-10-03T18:53:11.331Z,101022.88
2023-10-03T18:55:38.536Z,101034.41
2023-10-03T18:58:05.889Z,101048.13
2023-10-03T19:00:32.362Z,101051.66
2023-10-03T19:02:58.911Z,101059.59
2023-10-03T19:05:25.385Z,101054.53
2023-10-03T19:07:51.824Z,101061.00
2023-10-03T19:10:19.934Z,101061.72
2023-10-03T19:12:46.336Z,101071.81
2023-10-03T19:15:13.051Z,101083.34
2023-10-03T19:17:39.622Z,101096.28
2023-10-03T19:20:07.900Z,101104.88
2023-10-03T19:22:34.797Z,101116.41
2023-10-03T19:25:02.838Z,101133.00
2023-10-03T19:27:29.462Z,101131.53
2023-10-03T19:29:55.996Z,101143.81
2023-10-03T19:32:22.433Z,101145.97
2023-10-03T19:34:50.052Z,101153.13
2023-10-03T19:37:18.334Z,101163.94
2023-10-03T19:39:45.091Z,101166.72
2023-10-03T19:42:11.516Z,101169.72
2023-10-03T19:44:37.938Z,101179.03
2023-10-03T19:47:05.260Z,101181.16
2023-10-03T19:49:35.459Z,101188.34
2023-10-03T19:52:01.872Z,101191.25
2023-10-03T19:54:30.603Z,101191.88
2023-10-03T19:56:57.101Z,101199.81
2023-10-03T19:59:23.539Z,101201.19
2023-10-03T20:01:50.076Z,101198.31
2023-10-03T20:04:16.599Z,101214.16
2023-10-03T20:06:43.041Z,101224.28
2023-10-03T20:09:12.343Z,101224.28
2023-10-03T20:11:39.080Z,101242.94
2023-10-03T20:14:09.362Z,101251.69
2023-10-03T20:16:36.380Z,101267.50
2023-10-03T20:19:03.102Z,101266.03
2023-10-03T20:21:29.748Z,101271.78
2023-10-03T20:23:56.931Z,101283.34
2023-10-03T20:26:23.433Z,101277.56
2023-10-03T20:28:50.110Z,101279.72
2023-10-03T20:31:17.325Z,101284.72
2023-10-03T20:33:44.263Z,101292.66
2023-10-03T20:36:14.278Z,101297.69
2023-10-03T20:38:41.082Z,101304.94
2023-10-03T20:41:10.927Z,101306.34
2023-10-03T20:43:37.608Z,101309.22
2023-10-03T20:46:11.199Z,101312.03
2023-10-03T20:48:39.474Z,101314.16
2023-10-03T20:51:08.870Z,101327.84
2023-10-03T20:53:35.534Z,101330.75
2023-10-03T20:56:01.948Z,101345.19
2023-10-03T20:58:28.374Z,101350.19
2023-10-03T21:00:54.774Z,101352.34
2023-10-03T21:03:21.245Z,101356.72
2023-10-03T21:05:47.705Z,101365.28
2023-10-03T21:08:14.124Z,101362.41
2023-10-03T21:10:41.886Z,101367.41
2023-10-03T21:13:08.290Z,101369.56
2023-10-03T21:15:36.779Z,101374.59
2023-10-03T21:18:03.768Z,101385.50
2023-10-03T21:20:30.255Z,101385.41
2023-10-03T21:22:57.097Z,101391.91
2023-10-03T21:25:23.825Z,101401.22
2023-10-03T21:27:50.241Z,101396.19
2023-10-03T21:30:16.685Z,101407.75
2023-10-03T21:32:43.313Z,101405.50
2023-10-03T21:35:09.876Z,101411.28
2023-10-03T21:37:36.793Z,101424.97
2023-10-03T21:40:03.854Z,101422.09
2023-10-03T21:42:30.486Z,101432.84
2023-10-03T21:44:57.463Z,101427.09
2023-10-03T21:47:23.920Z,101426.34
2023-10-03T21:49:50.780Z,101431.38
2023-10-03T21:52:17.336Z,101440.03
2023-10-03T21:54:43.718Z,101441.44
2023-10-03T21:57:10.154Z,101447.97
2023-10-03T21:59:36.849Z,101442.81
2023-10-03T22:02:03.324Z,101451.47
2023-10-03T22:04:29.767Z,101446.44
2023-10-03T22:06:57.629Z,101463.03
2023-10-03T22:09:24.448Z,101460.16
2023-10-03T22:11:51.647Z,101468.81
2023-10-03T22:14:19.002Z,101467.31
2023-10-03T22:16:45.785Z,101470.22
2023-10-03T22:19:12.435Z,101473.09
2023-10-03T22:21:38.805Z,101482.38
2023-10-03T22:24:05.722Z,101484.53
2023-10-03T22:26:32.166Z,101488.16
2023-10-03T22:28:59.022Z,101483.13
2023-10-03T22:31:25.864Z,101491.78
2023-10-03T22:33:53.363Z,101484.53
2023-10-03T22:36:22.422Z,101483.03
2023-10-03T22:38:50.158Z,101493.84
2023-10-03T22:41:16.530Z,101503.22
2023-10-03T22:43:42.927Z,101508.25
2023-10-03T22:46:10.748Z,101511.16
2023-10-03T22:48:37.364Z,101511.16
2023-10-03T22:51:04.175Z,101506.00
2023-10-03T22:53:30.671Z,101511.78
2023-10-03T22:55:57.064Z,101517.56
2023-10-03T22:58:23.444Z,101513.94
2023-10-03T23:00:51.768Z,101521.84
2023-10-03T23:03:18.220Z,101539.16
2023-10-03T23:05:45.586Z,101533.41
2023-10-03T23:08:11.967Z,101549.97
2023-10-03T23:10:38.486Z,101560.09
2023-10-03T23:13:04.871Z,101560.00
2023-10-03T23:15:31.338Z,101547.72
2023-10-03T23:17:57.782Z,101552.75
2023-10-03T23:20:24.194Z,101566.44
2023-10-03T23:22:51.172Z,101559.25
2023-10-03T23:25:17.669Z,101563.56
2023-10-03T23:27:44.082Z,101564.28
2023-10-03T23:30:12.670Z,101570.06
2023-10-03T23:32:39.376Z,101575.09
2023-10-03T23:35:07.849Z,101575.09
2023-10-03T23:37:35.394Z,101570.06
2023-10-03T23:40:12.995Z,101567.81
2023-10-03T23:42:39.418Z,101585.13
2023-10-03T23:45:06.054Z,101590.91
2023-10-03T23:47:35.596Z,101596.66
2023-10-03T23:50:06.439Z,101595.19
2023-10-03T23:52:33.866Z,101592.31
2023-10-03T23:55:01.486Z,101592.31
2023-10-03T23:57:36.693Z,101602.34
